createdAt,value
2022-11-30T00:01:23.627Z,102.10
2022-11-30T00:03:55.073Z,100.85
2022-11-30T00:06:23.621Z,96.68
2022-11-30T00:08:54.058Z,98.72
2022-11-30T00:11:22.559Z,100.53
2022-11-30T00:13:50.569Z,101.68
2022-11-30T00:16:18.094Z,97.53
2022-11-30T00:18:46.471Z,100.03
2022-11-30T00:21:14.913Z,96.88
2022-11-30T00:23:43.570Z,92.07
2022-11-30T00:26:13.274Z,102.75
2022-11-30T00:28:41.245Z,99.57
2022-11-30T00:31:11.939Z,101.80
2022-11-30T00:33:39.806Z,98.07
2022-11-30T00:36:12.028Z,97.53
2022-11-30T00:38:39.454Z,105.50
2022-11-30T00:41:07.785Z,99.63
2022-11-30T00:43:35.143Z,93.00
2022-11-30T00:46:02.400Z,102.80
2022-11-30T00:48:29.815Z,98.10
2022-11-30T00:50:56.979Z,96.22
2022-11-30T00:53:24.438Z,102.55
2022-11-30T00:55:51.698Z,101.88
2022-11-30T00:58:19.746Z,98.32
2022-11-30T01:00:46.984Z,95.22
2022-11-30T01:03:14.782Z,101.88
2022-11-30T01:05:43.343Z,93.55
2022-11-30T01:08:11.422Z,94.63
2022-11-30T01:10:40.181Z,99.15
2022-11-30T01:13:08.109Z,97.88
2022-11-30T01:15:43.666Z,96.20
2022-11-30T01:18:12.525Z,101.97
2022-11-30T01:20:43.340Z,108.55
2022-11-30T01:23:11.334Z,97.75
2022-11-30T01:25:38.915Z,100.85
2022-11-30T01:28:06.286Z,102.32
2022-11-30T01:30:33.705Z,101.65
2022-11-30T01:33:05.043Z,99.82
2022-11-30T01:35:32.315Z,104.07
2022-11-30T01:37:59.522Z,101.60
2022-11-30T01:40:26.913Z,100.45
2022-11-30T01:42:54.806Z,99.63
2022-11-30T01:45:22.107Z,101.55
2022-11-30T01:47:52.996Z,101.30
2022-11-30T01:50:30.473Z,104.55
2022-11-30T01:52:58.326Z,100.63
2022-11-30T01:55:36.338Z,109.00
2022-11-30T01:58:23.718Z,103.85
2022-11-30T02:00:51.315Z,112.95
2022-11-30T02:03:39.991Z,103.85
2022-11-30T02:06:07.571Z,97.72
2022-11-30T02:08:35.176Z,101.35
2022-11-30T02:11:05.645Z,98.18
2022-11-30T02:13:58.682Z,105.25
2022-11-30T02:17:02.160Z,107.78
2022-11-30T02:19:53.420Z,103.68
2022-11-30T02:22:31.674Z,109.35
2022-11-30T02:25:07.665Z,103.13
2022-11-30T02:27:49.750Z,103.32
2022-11-30T02:30:21.658Z,98.35
2022-11-30T02:33:16.997Z,102.88
2022-11-30T02:35:51.634Z,103.00
2022-11-30T02:38:23.055Z,103.30
2022-11-30T02:40:50.433Z,98.45
2022-11-30T02:43:19.310Z,99.47
2022-11-30T02:46:08.091Z,99.95
2022-11-30T02:48:45.749Z,114.57
2022-11-30T02:51:16.051Z,103.38
2022-11-30T02:53:44.030Z,105.75
2022-11-30T02:56:11.238Z,113.70
2022-11-30T02:58:38.465Z,113.38
2022-11-30T03:01:05.781Z,109.80
2022-11-30T03:03:33.017Z,114.90
2022-11-30T03:06:00.308Z,99.93
2022-11-30T03:08:27.509Z,109.18
2022-11-30T03:10:54.673Z,104.40
2022-11-30T03:13:22.015Z,105.32
2022-11-30T03:15:49.427Z,108.60
2022-11-30T03:18:16.683Z,109.65
2022-11-30T03:20:44.210Z,115.22
2022-11-30T03:23:11.439Z,102.55
2022-11-30T03:25:38.748Z,102.45
2022-11-30T03:28:06.207Z,105.13
2022-11-30T03:30:33.479Z,112.95
2022-11-30T03:33:00.739Z,99.10
2022-11-30T03:35:27.915Z,102.65
2022-11-30T03:37:55.103Z,102.45
2022-11-30T03:40:22.278Z,100.18
2022-11-30T03:42:49.428Z,106.80
2022-11-30T03:45:16.714Z,100.72
2022-11-30T03:47:45.575Z,98.05
2022-11-30T03:50:12.738Z,98.63
2022-11-30T03:52:39.970Z,103.28
2022-11-30T03:55:07.726Z,107.03
2022-11-30T03:57:34.923Z,99.78
2022-11-30T04:00:02.139Z,97.68
2022-11-30T04:02:29.357Z,103.15
2022-11-30T04:04:56.577Z,100.75
2022-11-30T04:07:23.962Z,102.88
2022-11-30T04:09:51.158Z,104.82
2022-11-30T04:12:18.402Z,98.38
2022-11-30T04:14:45.807Z,96.68
2022-11-30T04:17:15.306Z,101.72
2022-11-30T04:19:42.555Z,104.88
2022-11-30T04:22:09.794Z,98.97
2022-11-30T04:24:37.022Z,102.07
2022-11-30T04:27:04.284Z,100.45
2022-11-30T04:29:31.483Z,97.85
2022-11-30T04:31:58.725Z,104.03
2022-11-30T04:34:28.433Z,97.55
2022-11-30T04:37:00.112Z,99.95
2022-11-30T04:39:27.737Z,99.85
2022-11-30T04:41:54.945Z,105.15
2022-11-30T04:44:22.246Z,103.18
2022-11-30T04:46:49.446Z,98.47
2022-11-30T04:49:16.661Z,101.60
2022-11-30T04:51:43.901Z,99.20
2022-11-30T04:54:11.131Z,98.45
2022-11-30T04:56:38.303Z,96.82
2022-11-30T04:59:05.493Z,98.47
2022-11-30T05:01:32.744Z,95.45
2022-11-30T05:04:00.316Z,98.68
2022-11-30T05:06:30.926Z,95.13
2022-11-30T05:08:58.132Z,93.47
2022-11-30T05:11:25.319Z,97.05
2022-11-30T05:13:52.502Z,99.03
2022-11-30T05:16:22.550Z,97.03
2022-11-30T05:18:49.743Z,101.60
2022-11-30T05:21:18.137Z,103.00
2022-11-30T05:23:47.073Z,97.72
2022-11-30T05:26:14.700Z,94.22
2022-11-30T05:28:42.075Z,96.82
2022-11-30T05:31:09.353Z,97.65
2022-11-30T05:33:36.551Z,99.13
2022-11-30T05:36:10.198Z,96.78
2022-11-30T05:38:37.977Z,99.63
2022-11-30T05:41:05.213Z,92.80
2022-11-30T05:43:32.381Z,102.57
2022-11-30T05:46:01.034Z,99.38
2022-11-30T05:48:28.290Z,96.32
2022-11-30T05:50:55.837Z,99.47
2022-11-30T05:53:23.216Z,105.88
2022-11-30T05:55:50.394Z,95.88
2022-11-30T05:58:17.626Z,96.10
2022-11-30T06:00:44.910Z,96.82
2022-11-30T06:03:12.168Z,98.95
2022-11-30T06:05:39.686Z,101.15
2022-11-30T06:08:06.929Z,95.05
2022-11-30T06:10:34.128Z,94.32
2022-11-30T06:13:09.826Z,96.32
2022-11-30T06:15:38.142Z,102.65
2022-11-30T06:18:06.185Z,94.00
2022-11-30T06:20:33.788Z,99.78
2022-11-30T06:23:01.050Z,101.78
2022-11-30T06:25:28.504Z,98.32
2022-11-30T06:27:55.787Z,97.57
2022-11-30T06:30:23.184Z,97.10
2022-11-30T06:32:51.466Z,93.95
2022-11-30T06:35:19.064Z,97.82
2022-11-30T06:37:46.437Z,100.90
2022-11-30T06:40:14.251Z,96.28
2022-11-30T06:42:41.713Z,94.35
2022-11-30T06:45:09.303Z,94.78
2022-11-30T06:47:36.748Z,97.20
2022-11-30T06:50:04.831Z,98.03
2022-11-30T06:52:32.381Z,99.43
2022-11-30T06:54:59.651Z,96.82
2022-11-30T06:57:28.290Z,90.82
2022-11-30T06:59:55.932Z,90.55
2022-11-30T07:02:23.461Z,93.05
2022-11-30T07:04:50.908Z,91.70
2022-11-30T07:07:18.282Z,96.10
2022-11-30T07:09:45.533Z,97.40
2022-11-30T07:12:15.988Z,95.57
2022-11-30T07:14:43.233Z,93.90
2022-11-30T07:17:12.853Z,97.57
2022-11-30T07:19:40.110Z,103.97
2022-11-30T07:22:07.315Z,94.15
2022-11-30T07:24:53.070Z,93.65
2022-11-30T07:27:20.430Z,87.45
2022-11-30T07:29:48.875Z,92.60
2022-11-30T07:32:16.081Z,96.88
2022-11-30T07:34:43.607Z,95.00
2022-11-30T07:37:11.379Z,90.68
2022-11-30T07:39:38.550Z,91.30
2022-11-30T07:42:05.757Z,92.60
2022-11-30T07:44:33.038Z,94.30
2022-11-30T07:47:01.045Z,99.85
2022-11-30T07:49:28.373Z,93.85
2022-11-30T07:51:55.558Z,95.43
2022-11-30T07:54:22.818Z,90.70
2022-11-30T07:56:50.160Z,104.13
2022-11-30T07:59:17.801Z,92.15
2022-11-30T08:01:45.157Z,88.32
2022-11-30T08:04:13.964Z,95.75
2022-11-30T08:06:41.402Z,98.13
2022-11-30T08:09:10.872Z,89.25
2022-11-30T08:14:05.534Z,86.32
2022-11-30T08:16:37.887Z,86.20
2022-11-30T08:19:05.268Z,85.70
2022-11-30T08:21:32.481Z,93.65
2022-11-30T08:23:59.918Z,89.53
2022-11-30T08:26:30.124Z,91.93
2022-11-30T08:28:58.738Z,83.35
2022-11-30T08:31:28.733Z,89.55
2022-11-30T08:34:00.989Z,88.88
2022-11-30T08:36:29.698Z,82.72
2022-11-30T08:39:02.282Z,85.82
2022-11-30T08:41:29.602Z,78.68
2022-11-30T08:43:56.809Z,84.72
2022-11-30T08:49:21.529Z,82.97
2022-11-30T08:54:40.076Z,77.43
2022-11-30T08:57:07.252Z,82.75
2022-11-30T08:59:34.440Z,73.97
2022-11-30T09:02:01.677Z,81.72
2022-11-30T09:04:28.839Z,75.38
2022-11-30T09:06:59.024Z,72.07
2022-11-30T09:09:26.482Z,77.97
2022-11-30T09:11:53.761Z,77.25
2022-11-30T09:14:20.989Z,72.63
2022-11-30T09:16:48.190Z,71.22
2022-11-30T09:19:15.363Z,69.40
2022-11-30T09:21:45.416Z,68.63
2022-11-30T09:24:16.928Z,71.65
2022-11-30T09:26:44.089Z,73.68
2022-11-30T09:29:11.274Z,66.85
2022-11-30T09:31:38.462Z,69.18
2022-11-30T09:34:05.635Z,65.18
2022-11-30T09:36:33.998Z,67.07
2022-11-30T09:39:01.331Z,69.63
2022-11-30T09:42:06.995Z,65.03
2022-11-30T09:44:58.523Z,60.33
2022-11-30T09:48:07.942Z,61.13
2022-11-30T09:50:47.358Z,58.22
2022-11-30T09:55:56.964Z,60.22
2022-11-30T09:58:39.705Z,60.45
2022-11-30T10:01:13.538Z,60.00
2022-11-30T10:03:41.847Z,56.72
2022-11-30T10:06:15.411Z,59.92
2022-11-30T10:09:00.956Z,59.88
2022-11-30T10:11:45.284Z,59.72
2022-11-30T10:14:49.622Z,57.95
2022-11-30T10:17:33.045Z,54.60
2022-11-30T10:20:40.878Z,50.78
2022-11-30T10:23:07.934Z,53.05
2022-11-30T10:25:56.111Z,50.00
2022-11-30T10:28:47.727Z,47.05
2022-11-30T10:31:16.932Z,53.60
2022-11-30T10:33:48.235Z,51.88
2022-11-30T10:36:41.983Z,55.13
2022-11-30T10:39:25.422Z,51.78
2022-11-30T10:42:00.332Z,49.80
2022-11-30T10:44:31.368Z,47.63
2022-11-30T10:47:26.103Z,46.80
2022-11-30T10:49:53.691Z,45.75
2022-11-30T10:52:35.868Z,46.90
2022-11-30T10:55:05.091Z,46.50
2022-11-30T10:57:33.405Z,46.78
2022-11-30T11:00:03.776Z,48.75
2022-11-30T11:02:43.469Z,50.50
2022-11-30T11:05:15.351Z,46.63
2022-11-30T11:08:06.465Z,46.72
2022-11-30T11:10:36.830Z,44.97
2022-11-30T11:13:05.223Z,46.95
2022-11-30T11:15:36.279Z,48.75
2022-11-30T11:18:26.180Z,45.53
2022-11-30T11:21:20.913Z,45.63
2022-11-30T11:23:56.065Z,45.65
2022-11-30T11:26:28.624Z,43.03
2022-11-30T11:28:57.321Z,44.17
2022-11-30T11:31:46.120Z,48.13
2022-11-30T11:34:33.582Z,47.85
2022-11-30T11:37:24.276Z,49.85
2022-11-30T11:40:16.255Z,55.20
2022-11-30T11:42:49.196Z,54.72
2022-11-30T11:45:31.246Z,63.55
2022-11-30T11:48:04.226Z,65.63
2022-11-30T11:53:24.895Z,70.55
2022-11-30T11:56:03.415Z,68.13
2022-11-30T11:58:47.815Z,83.55
2022-11-30T12:01:42.656Z,72.10
2022-11-30T12:04:35.203Z,80.15
2022-11-30T12:07:12.544Z,72.72
2022-11-30T12:09:53.363Z,73.40
2022-11-30T12:12:20.616Z,70.47
2022-11-30T12:14:48.145Z,72.57
2022-11-30T12:17:38.366Z,72.35
2022-11-30T12:20:31.098Z,72.03
2022-11-30T12:23:27.489Z,75.63
2022-11-30T12:26:20.531Z,73.38
2022-11-30T12:29:21.461Z,81.82
2022-11-30T12:32:01.590Z,73.25
2022-11-30T12:35:14.614Z,75.75
2022-11-30T12:37:50.564Z,80.05
2022-11-30T12:40:30.365Z,79.07
2022-11-30T12:43:19.328Z,76.35
2022-11-30T12:45:47.197Z,75.68
2022-11-30T12:48:35.815Z,75.63
2022-11-30T12:51:10.406Z,73.32
2022-11-30T12:53:53.306Z,75.13
2022-11-30T12:56:46.188Z,70.93
2022-11-30T12:59:37.068Z,71.93
2022-11-30T13:02:42.006Z,69.03
2022-11-30T13:05:13.243Z,68.50
2022-11-30T13:07:52.778Z,77.63
2022-11-30T13:10:27.262Z,69.88
2022-11-30T13:12:55.988Z,72.88
2022-11-30T13:15:26.031Z,79.75
2022-11-30T13:17:54.283Z,76.97
2022-11-30T13:20:41.984Z,76.53
2022-11-30T13:23:11.210Z,78.10
2022-11-30T13:28:41.729Z,72.70
2022-11-30T13:31:22.491Z,78.00
2022-11-30T13:33:56.022Z,78.22
2022-11-30T13:36:39.986Z,75.88
2022-11-30T13:39:23.300Z,78.90
2022-11-30T13:42:10.479Z,80.40
2022-11-30T13:44:42.598Z,75.35
2022-11-30T13:47:30.049Z,73.35
2022-11-30T13:49:59.824Z,76.38
2022-11-30T13:52:58.504Z,75.72
2022-11-30T13:55:56.392Z,76.57
2022-11-30T13:58:24.463Z,82.07
2022-11-30T14:01:26.926Z,89.38
2022-11-30T14:04:26.796Z,80.78
2022-11-30T14:06:56.353Z,84.47
2022-11-30T14:09:57.403Z,93.28
2022-11-30T14:12:37.492Z,89.97
2022-11-30T14:15:31.752Z,93.97
2022-11-30T14:17:59.509Z,103.97
2022-11-30T14:20:37.513Z,100.03
2022-11-30T14:23:13.539Z,97.80
2022-11-30T14:25:46.492Z,104.35
2022-11-30T14:28:17.486Z,102.85
2022-11-30T14:30:45.066Z,112.95
2022-11-30T14:33:22.730Z,108.18
2022-11-30T14:35:54.517Z,104.20
2022-11-30T14:38:27.388Z,107.78
2022-11-30T14:40:55.045Z,103.63
2022-11-30T14:43:22.320Z,110.25
2022-11-30T14:46:07.257Z,107.80
2022-11-30T14:48:37.461Z,109.55
2022-11-30T14:51:04.693Z,122.28
2022-11-30T14:53:36.968Z,110.20
2022-11-30T14:56:26.039Z,106.60
2022-11-30T14:59:31.068Z,115.00
2022-11-30T15:02:00.605Z,110.53
2022-11-30T15:04:28.668Z,117.28
2022-11-30T15:06:56.601Z,128.13
2022-11-30T15:09:29.231Z,114.07
2022-11-30T15:11:56.783Z,125.00
2022-11-30T15:14:27.215Z,116.15
2022-11-30T15:16:56.997Z,124.93
2022-11-30T15:19:32.473Z,120.13
2022-11-30T15:22:00.018Z,128.18
2022-11-30T15:24:29.386Z,122.85
2022-11-30T15:27:11.325Z,125.55
2022-11-30T15:29:41.324Z,128.57
2022-11-30T15:32:16.943Z,131.73
2022-11-30T15:34:56.856Z,133.98
2022-11-30T15:37:32.770Z,144.68
2022-11-30T15:40:02.063Z,140.35
2022-11-30T15:42:39.998Z,141.27
2022-11-30T15:45:31.645Z,133.73
2022-11-30T15:48:03.448Z,138.35
2022-11-30T15:50:37.667Z,142.60
2022-11-30T15:53:24.549Z,144.32
2022-11-30T15:55:57.560Z,151.20
2022-11-30T15:58:46.543Z,144.63
2022-11-30T16:01:25.034Z,147.68
2022-11-30T16:04:03.883Z,151.02
2022-11-30T16:06:47.881Z,158.60
2022-11-30T16:09:32.273Z,150.65
2022-11-30T16:12:01.071Z,152.43
2022-11-30T16:14:28.317Z,156.57
2022-11-30T16:16:55.782Z,162.02
2022-11-30T16:19:23.205Z,146.68
2022-11-30T16:21:50.842Z,163.38
2022-11-30T16:24:18.211Z,161.25
2022-11-30T16:26:52.892Z,155.68
2022-11-30T16:29:20.686Z,160.65
2022-11-30T16:31:48.064Z,154.55
2022-11-30T16:34:15.379Z,154.88
2022-11-30T16:36:42.874Z,150.73
2022-11-30T16:39:12.288Z,149.93
2022-11-30T16:41:39.618Z,158.98
2022-11-30T16:44:13.468Z,162.93
2022-11-30T16:46:40.625Z,149.57
2022-11-30T16:49:07.805Z,160.65
2022-11-30T16:51:36.029Z,154.13
2022-11-30T16:54:03.836Z,156.40
2022-11-30T16:56:30.996Z,157.40
2022-11-30T16:58:58.172Z,162.20
2022-11-30T17:01:35.474Z,157.13
2022-11-30T17:04:24.221Z,164.15
2022-11-30T17:06:54.703Z,154.48
2022-11-30T17:09:24.582Z,151.85
2022-11-30T17:11:52.089Z,150.00
2022-11-30T17:14:20.906Z,152.52
2022-11-30T17:16:48.991Z,162.23
2022-11-30T17:19:17.391Z,169.38
2022-11-30T17:21:48.465Z,167.65
2022-11-30T17:24:16.288Z,147.60
2022-11-30T17:26:49.776Z,157.13
2022-11-30T17:29:16.978Z,145.63
2022-11-30T17:31:46.247Z,157.32
2022-11-30T17:34:13.454Z,150.93
2022-11-30T17:36:40.653Z,163.93
2022-11-30T17:39:08.701Z,153.43
2022-11-30T17:41:36.119Z,160.27
2022-11-30T17:44:03.459Z,153.27
2022-11-30T17:46:30.649Z,154.95
2022-11-30T17:48:57.845Z,143.35
2022-11-30T17:51:25.381Z,145.40
2022-11-30T17:53:52.624Z,158.23
2022-11-30T17:56:20.227Z,150.70
2022-11-30T17:58:49.476Z,152.68
2022-11-30T18:01:17.639Z,142.98
2022-11-30T18:03:45.544Z,147.32
2022-11-30T18:06:12.979Z,153.88
2022-11-30T18:08:40.242Z,154.82
2022-11-30T18:11:16.768Z,171.63
2022-11-30T18:13:43.937Z,155.02
2022-11-30T18:16:19.488Z,156.20
2022-11-30T18:18:48.515Z,155.15
2022-11-30T18:23:44.301Z,150.48
2022-11-30T18:26:14.259Z,146.07
2022-11-30T18:28:41.788Z,153.68
2022-11-30T18:31:09.314Z,165.90
2022-11-30T18:33:37.391Z,146.55
2022-11-30T18:36:08.818Z,156.80
2022-11-30T18:38:38.245Z,154.90
2022-11-30T18:41:06.585Z,147.40
2022-11-30T18:43:34.828Z,159.20
2022-11-30T18:46:03.844Z,145.63
2022-11-30T18:48:33.166Z,144.05
2022-11-30T18:51:14.261Z,142.93
2022-11-30T18:53:41.849Z,138.55
2022-11-30T18:56:21.900Z,139.48
2022-11-30T18:58:49.356Z,138.32
2022-11-30T19:01:18.924Z,147.18
2022-11-30T19:03:54.220Z,136.73
2022-11-30T19:06:21.738Z,153.18
2022-11-30T19:08:49.120Z,146.20
2022-11-30T19:11:17.362Z,141.65
2022-11-30T19:13:45.203Z,146.48
2022-11-30T19:16:15.697Z,156.55
2022-11-30T19:18:45.021Z,144.30
2022-11-30T19:21:14.909Z,145.50
2022-11-30T19:23:42.159Z,144.18
2022-11-30T19:26:10.263Z,149.40
2022-11-30T19:28:38.390Z,143.77
2022-11-30T19:31:10.957Z,151.05
2022-11-30T19:33:40.201Z,143.98
2022-11-30T19:36:09.039Z,143.63
2022-11-30T19:38:36.282Z,150.95
2022-11-30T19:41:07.793Z,141.07
2022-11-30T19:43:35.486Z,132.43
2022-11-30T19:46:06.281Z,141.77
2022-11-30T19:48:34.193Z,136.77
2022-11-30T19:51:10.943Z,142.00
2022-11-30T19:56:13.853Z,136.65
2022-11-30T19:58:42.351Z,133.68
2022-11-30T20:01:13.414Z,149.77
2022-11-30T20:03:40.817Z,146.93
2022-11-30T20:06:08.134Z,143.55
2022-11-30T20:08:36.915Z,146.18
2022-11-30T20:11:12.301Z,149.70
2022-11-30T20:13:39.547Z,139.27
2022-11-30T20:16:12.213Z,133.48
2022-11-30T20:18:45.697Z,131.13
2022-11-30T20:21:19.169Z,144.80
2022-11-30T20:23:47.361Z,128.85
2022-11-30T20:26:20.542Z,125.53
2022-11-30T20:28:49.130Z,122.22
2022-11-30T20:31:18.385Z,131.57
2022-11-30T20:33:45.893Z,135.80
2022-11-30T20:36:13.783Z,139.35
2022-11-30T20:38:41.458Z,132.95
2022-11-30T20:41:11.949Z,141.90
2022-11-30T20:43:39.324Z,141.20
2022-11-30T20:46:33.935Z,145.93
2022-11-30T20:49:02.107Z,132.88
2022-11-30T20:51:36.300Z,137.05
2022-11-30T20:54:06.466Z,141.98
2022-11-30T20:56:36.556Z,154.38
2022-11-30T20:59:06.312Z,138.43
2022-11-30T21:01:33.827Z,134.95
2022-11-30T21:04:01.343Z,147.55
2022-11-30T21:06:29.919Z,147.20
2022-11-30T21:08:57.617Z,162.17
2022-11-30T21:11:25.008Z,144.52
2022-11-30T21:13:52.686Z,148.75
2022-11-30T21:16:27.120Z,146.13
2022-11-30T21:18:56.441Z,148.50
2022-11-30T21:21:25.978Z,124.05
2022-11-30T21:23:53.508Z,128.77
2022-11-30T21:26:24.286Z,143.85
2022-11-30T21:28:55.789Z,135.75
2022-11-30T21:31:23.905Z,138.60
2022-11-30T21:33:53.660Z,134.30
2022-11-30T21:36:22.067Z,129.63
2022-11-30T21:38:58.168Z,133.20
2022-11-30T21:41:30.346Z,135.48
2022-11-30T21:43:58.658Z,132.30
2022-11-30T21:46:26.195Z,140.02
2022-11-30T21:48:53.453Z,132.77
2022-11-30T21:51:23.459Z,144.63
2022-11-30T21:53:53.107Z,141.40
2022-11-30T21:56:22.729Z,140.55
2022-11-30T21:58:50.513Z,139.48
2022-11-30T22:01:23.125Z,134.60
2022-11-30T22:03:50.832Z,143.65
2022-11-30T22:06:19.468Z,138.38
2022-11-30T22:08:47.292Z,141.90
2022-11-30T22:11:20.201Z,147.88
2022-11-30T22:13:52.526Z,138.55
2022-11-30T22:16:21.165Z,130.45
2022-11-30T22:18:48.701Z,137.18
2022-11-30T22:21:17.956Z,133.25
2022-11-30T22:23:56.344Z,143.00
2022-11-30T22:26:26.083Z,140.13
2022-11-30T22:28:57.976Z,141.95
2022-11-30T22:31:30.399Z,156.27
2022-11-30T22:33:58.357Z,148.38
2022-11-30T22:36:28.143Z,147.95
2022-11-30T22:39:00.345Z,156.98
2022-11-30T22:41:28.315Z,147.93
2022-11-30T22:43:56.168Z,147.73
2022-11-30T22:46:28.570Z,142.50
2022-11-30T22:48:58.151Z,147.20
2022-11-30T22:51:28.120Z,157.52
2022-11-30T22:53:56.125Z,144.48
2022-11-30T22:56:25.500Z,145.45
2022-11-30T23:01:35.083Z,153.45
2022-11-30T23:04:04.997Z,154.07
2022-11-30T23:06:32.707Z,158.10
2022-11-30T23:09:00.707Z,147.15
2022-11-30T23:11:29.500Z,157.45
2022-11-30T23:13:56.906Z,157.80
2022-11-30T23:16:24.393Z,156.48
2022-11-30T23:18:54.602Z,154.75
2022-11-30T23:21:29.737Z,153.77
2022-11-30T23:23:59.198Z,143.02
2022-11-30T23:26:28.642Z,139.88
2022-11-30T23:28:58.879Z,143.05
2022-11-30T23:31:34.027Z,139.25
2022-11-30T23:34:05.370Z,132.88
2022-11-30T23:36:33.613Z,136.32
2022-11-30T23:39:03.731Z,139.35
2022-11-30T23:41:31.151Z,139.55
2022-11-30T23:43:58.567Z,135.48
2022-11-30T23:46:29.065Z,149.45
2022-11-30T23:48:56.644Z,136.68
2022-11-30T23:51:24.610Z,137.82
2022-11-30T23:53:51.891Z,154.63
2022-11-30T23:56:20.298Z,150.45
2022-11-30T23:58:48.209Z,164.18
